White Pine, Pennsylvania
Current Conditions -  °F | °C
As of 8:54 PM on Thursday 20 Nov 2014 (Local Time) from KIPT Reporting Station
Clear Clear  
Wind Chill: 17°   Ceiling: Unl
Heat Index: 26°   Visibility: 10mi
Dew Point:   Wind: 9mph
Humidity: 49%   Direction: 280°W
Pressure: 30.02"   Gusts: NA
Location:  41.4223°N, 76.9976°W
Report Text: KIPT 210154Z 28008KT 10SM CLR M03/M13 A3002 RMK AO2 SLP170 T10331128
Loading
Personal Weather Stations






























Interactive Weather Map New forecast layout! Learn more

10-Day Weather Forecast

Advertisements
Track Severe Weather on mobile